Time;durP1;ratioP1;P1;durP2;ratioP2;P2;SDS_P1;SDS_P2;PMS_P1;PMS_P2;Temp;Humidity;BMP_temperature;BMP_pressure;BME280_temperature;BME280_humidity;BME280_pressure;Samples;Min_cycle;Max_cycle;Signal;HPM_P1;HPM_P2
2022/03/21 00:00:52;;;;;;;46.58;40.20;;;11.40;64.60;;;;;;5033255;28;20028;-58
2022/03/21 00:03:22;;;;;;;42.13;37.63;;;11.40;64.60;;;;;;5032756;28;20102;-56
2022/03/21 00:05:48;;;;;;;44.35;39.67;;;11.30;64.60;;;;;;5033389;28;20029;-56
2022/03/21 00:08:16;;;;;;;45.70;40.90;;;11.30;64.40;;;;;;5033754;28;20421;-60
2022/03/21 00:10:42;;;;;;;43.03;38.53;;;11.30;64.60;;;;;;5033376;28;20029;-56
2022/03/21 00:13:09;;;;;;;44.00;38.85;;;11.30;64.60;;;;;;5033270;28;20025;-57
2022/03/21 00:15:35;;;;;;;44.72;39.90;;;11.30;64.80;;;;;;5033210;28;20116;-57
2022/03/21 00:18:02;;;;;;;43.85;39.33;;;11.20;64.80;;;;;;5033001;28;20014;-61
2022/03/21 00:20:29;;;;;;;44.38;39.75;;;11.20;64.80;;;;;;5033150;28;20386;-57
2022/03/21 00:22:55;;;;;;;44.63;39.03;;;11.20;64.80;;;;;;5033404;28;20026;-55
2022/03/21 00:25:21;;;;;;;44.10;39.53;;;11.20;64.80;;;;;;5032643;28;20130;-57
2022/03/21 00:27:47;;;;;;;45.78;40.53;;;11.20;65.00;;;;;;5032922;28;20494;-56
2022/03/21 00:30:13;;;;;;;44.97;40.10;;;11.20;65.10;;;;;;5033086;28;20025;-56
2022/03/21 00:32:38;;;;;;;46.13;41.13;;;11.20;65.10;;;;;;5032183;28;20028;-56
2022/03/21 00:35:09;;;;;;;46.20;41.30;;;11.20;65.20;;;;;;5015680;28;20113;-55
2022/03/21 00:37:36;;;;;;;46.78;39.67;;;11.20;65.30;;;;;;5033373;28;20017;-56
2022/03/21 00:40:02;;;;;;;45.25;40.15;;;11.20;65.30;;;;;;5032823;28;20116;-58
2022/03/21 00:42:28;;;;;;;46.80;41.30;;;11.20;65.40;;;;;;5033060;28;20029;-63
2022/03/21 00:44:56;;;;;;;44.30;39.72;;;11.10;65.30;;;;;;5032831;28;20037;-65
2022/03/21 00:47:22;;;;;;;47.10;41.95;;;11.10;65.40;;;;;;5033257;28;20104;-55
2022/03/21 00:49:48;;;;;;;44.83;39.05;;;11.10;65.40;;;;;;5032778;28;20128;-61
2022/03/21 00:52:14;;;;;;;48.72;42.60;;;11.10;65.60;;;;;;5032909;28;20529;-61
2022/03/21 00:54:40;;;;;;;46.13;41.15;;;11.00;65.60;;;;;;5032986;28;20071;-62
2022/03/21 00:57:05;;;;;;;47.13;41.30;;;11.00;65.80;;;;;;5032839;28;20053;-65
2022/03/21 00:59:31;;;;;;;48.00;42.67;;;11.00;65.70;;;;;;5032942;28;20052;-68
2022/03/21 01:01:57;;;;;;;46.88;41.63;;;11.00;65.90;;;;;;5032764;28;20033;-69
2022/03/21 01:04:22;;;;;;;46.30;41.40;;;11.00;66.00;;;;;;5032960;28;20053;-71
2022/03/21 01:06:48;;;;;;;46.75;41.75;;;11.00;66.10;;;;;;5032688;28;20033;-62
2022/03/21 01:09:17;;;;;;;48.95;43.80;;;11.00;66.20;;;;;;5032978;28;20029;-71
2022/03/21 01:11:43;;;;;;;48.63;43.33;;;11.00;66.30;;;;;;5032365;28;20179;-71
2022/03/21 01:14:10;;;;;;;47.70;42.20;;;11.00;66.20;;;;;;5032735;28;20068;-68
2022/03/21 01:16:35;;;;;;;49.45;44.20;;;10.90;66.10;;;;;;5032777;28;20022;-68
2022/03/21 01:19:01;;;;;;;49.85;44.00;;;11.00;66.30;;;;;;5032888;28;20444;-67
2022/03/21 01:21:29;;;;;;;46.90;41.92;;;10.90;66.30;;;;;;5032666;28;20029;-65
2022/03/21 01:23:55;;;;;;;47.65;42.55;;;10.90;66.30;;;;;;5032295;28;20049;-64
2022/03/21 01:26:20;;;;;;;51.75;44.95;;;10.90;66.30;;;;;;5032707;28;20040;-64
2022/03/21 01:28:46;;;;;;;48.50;43.53;;;10.90;66.30;;;;;;5032431;28;20576;-67
2022/03/21 01:31:11;;;;;;;48.95;43.67;;;10.80;66.30;;;;;;5032486;28;20466;-71
2022/03/21 01:33:38;;;;;;;49.90;43.75;;;10.90;66.50;;;;;;5032502;28;20026;-67
2022/03/21 01:36:04;;;;;;;49.95;43.50;;;10.80;66.40;;;;;;5032162;28;20379;-68
2022/03/21 01:38:30;;;;;;;50.83;44.85;;;10.80;66.40;;;;;;5032619;28;20079;-68
2022/03/21 01:40:55;;;;;;;47.60;42.35;;;10.80;66.50;;;;;;5032516;28;20425;-68
2022/03/21 01:43:21;;;;;;;47.65;42.55;;;10.80;66.50;;;;;;5033557;28;20525;-64
2022/03/21 01:45:46;;;;;;;50.65;44.90;;;10.80;66.50;;;;;;5036121;28;20033;-67
2022/03/21 01:48:12;;;;;;;50.70;45.05;;;10.80;66.50;;;;;;5036073;28;20030;-69
2022/03/21 01:50:37;;;;;;;51.17;45.72;;;10.80;66.50;;;;;;5036327;28;20437;-68
2022/03/21 01:55:48;;;;;;;47.97;42.85;;;10.70;66.50;;;;;;5036133;28;20569;-62
2022/03/21 01:58:15;;;;;;;51.22;45.67;;;10.70;66.50;;;;;;5033200;28;20048;-68
2022/03/21 02:00:42;;;;;;;48.28;43.08;;;10.70;66.60;;;;;;5031800;28;20029;-69
2022/03/21 02:03:07;;;;;;;50.20;44.80;;;10.70;66.70;;;;;;5034972;28;20112;-69
2022/03/21 02:05:37;;;;;;;51.78;45.17;;;10.70;66.70;;;;;;5034240;28;20117;-68
2022/03/21 02:08:03;;;;;;;52.92;46.75;;;10.60;66.90;;;;;;5035438;28;20041;-67
2022/03/21 02:10:29;;;;;;;49.72;44.28;;;10.60;66.80;;;;;;5035950;28;20068;-69
2022/03/21 02:12:55;;;;;;;48.95;43.75;;;10.60;66.80;;;;;;5035171;28;20429;-59
2022/03/21 02:15:21;;;;;;;49.85;44.65;;;10.60;66.90;;;;;;5035970;28;20064;-56
2022/03/21 02:17:48;;;;;;;50.42;45.05;;;10.60;66.80;;;;;;5035410;28;20021;-55
2022/03/21 02:20:21;;;;;;;50.60;45.10;;;10.60;67.00;;;;;;5035445;28;20540;-56
2022/03/21 02:23:08;;;;;;;48.63;43.53;;;10.60;66.80;;;;;;5035425;28;20022;-54
2022/03/21 02:25:41;;;;;;;50.08;44.80;;;10.60;67.20;;;;;;5035663;28;20116;-54
2022/03/21 02:28:12;;;;;;;49.88;44.55;;;10.60;67.10;;;;;;5034415;28;20543;-56
2022/03/21 02:30:44;;;;;;;49.15;42.58;;;10.50;67.00;;;;;;5035220;28;20409;-58
2022/03/21 02:33:11;;;;;;;52.72;42.95;;;10.50;66.90;;;;;;5034354;28;20025;-61
2022/03/21 02:35:39;;;;;;;52.28;43.47;;;10.50;66.90;;;;;;5035481;28;20026;-58
2022/03/21 02:38:06;;;;;;;51.50;44.50;;;10.50;66.90;;;;;;5035262;28;20017;-55
2022/03/21 02:40:32;;;;;;;51.95;43.72;;;10.50;66.90;;;;;;5035122;28;20482;-57
2022/03/21 02:42:58;;;;;;;49.83;43.10;;;10.50;67.10;;;;;;5034714;28;20052;-55
2022/03/21 02:45:24;;;;;;;46.97;41.88;;;10.50;67.00;;;;;;5035100;28;20033;-56
2022/03/21 02:47:49;;;;;;;47.97;42.88;;;10.50;66.90;;;;;;5035088;28;20029;-53
2022/03/21 02:50:28;;;;;;;47.47;42.50;;;10.50;67.20;;;;;;5017253;28;20067;-59
2022/03/21 02:52:55;;;;;;;48.85;43.63;;;10.50;67.50;;;;;;5034876;28;20022;-56
2022/03/21 02:55:21;;;;;;;49.83;43.40;;;10.40;67.30;;;;;;5034037;28;20475;-59
2022/03/21 02:57:46;;;;;;;49.42;44.15;;;10.40;67.20;;;;;;5034498;28;20022;-54
2022/03/21 03:00:12;;;;;;;49.70;44.03;;;10.40;67.40;;;;;;5035109;28;20567;-59
2022/03/21 03:02:38;;;;;;;47.70;42.63;;;10.40;67.50;;;;;;5034856;28;20368;-54
2022/03/21 03:05:04;;;;;;;49.40;43.53;;;10.30;67.50;;;;;;5034510;28;20475;-55
2022/03/21 03:07:30;;;;;;;50.90;45.40;;;10.30;67.60;;;;;;5034807;28;20085;-55
2022/03/21 03:09:55;;;;;;;55.15;46.33;;;10.20;67.50;;;;;;5034439;28;20026;-56
2022/03/21 03:12:21;;;;;;;51.83;46.30;;;10.20;67.40;;;;;;5034597;28;20471;-56
2022/03/21 03:14:46;;;;;;;51.17;44.88;;;10.20;67.30;;;;;;5034329;28;20038;-56
2022/03/21 03:17:12;;;;;;;53.58;45.65;;;10.20;67.30;;;;;;5034639;28;20064;-55
2022/03/21 03:19:38;;;;;;;53.30;47.17;;;10.20;67.40;;;;;;5034599;28;20052;-56
2022/03/21 03:22:04;;;;;;;51.95;46.38;;;10.10;67.50;;;;;;5034231;28;20026;-56
2022/03/21 03:24:31;;;;;;;50.42;44.78;;;10.10;67.60;;;;;;5034048;28;20116;-55
2022/03/21 03:26:57;;;;;;;55.80;45.33;;;10.10;67.60;;;;;;5034470;28;20053;-56
2022/03/21 03:29:22;;;;;;;49.28;44.03;;;10.10;67.60;;;;;;5033618;28;20065;-57
2022/03/21 03:31:48;;;;;;;51.90;46.25;;;10.10;67.70;;;;;;5034361;28;20013;-54
2022/03/21 03:34:14;;;;;;;55.88;47.92;;;10.10;67.70;;;;;;5034320;28;20526;-55
2022/03/21 03:36:40;;;;;;;49.72;43.42;;;10.10;67.90;;;;;;5034751;28;20053;-55
2022/03/21 03:39:06;;;;;;;51.13;45.70;;;10.00;67.90;;;;;;5034199;28;20113;-57
2022/03/21 03:41:31;;;;;;;53.10;46.25;;;10.00;68.00;;;;;;5034591;28;20034;-55
2022/03/21 03:43:58;;;;;;;52.00;46.35;;;10.00;68.10;;;;;;5033953;28;20033;-55
2022/03/21 03:46:24;;;;;;;52.55;46.33;;;10.00;68.10;;;;;;5034244;28;20059;-55
2022/03/21 03:48:49;;;;;;;49.72;44.33;;;10.00;68.20;;;;;;5034088;28;20025;-58
2022/03/21 03:51:16;;;;;;;53.17;47.47;;;10.00;68.30;;;;;;5033578;28;20087;-58
2022/03/21 03:53:41;;;;;;;51.17;44.83;;;10.00;68.30;;;;;;5033532;28;20028;-57
2022/03/21 03:56:08;;;;;;;51.50;45.53;;;10.00;68.50;;;;;;5033684;28;20030;-58
2022/03/21 03:58:34;;;;;;;50.13;44.53;;;10.00;68.40;;;;;;5033753;28;20029;-55
2022/03/21 04:01:00;;;;;;;50.08;44.40;;;9.90;68.20;;;;;;5033713;28;20013;-57
2022/03/21 04:06:11;;;;;;;51.42;45.47;;;9.90;68.30;;;;;;5032772;28;20061;-60
2022/03/21 04:08:37;;;;;;;53.22;45.97;;;9.90;68.40;;;;;;5033045;28;20263;-58
2022/03/21 04:11:03;;;;;;;51.90;44.83;;;9.90;68.30;;;;;;5033077;28;20474;-55
2022/03/21 04:13:28;;;;;;;51.08;45.05;;;9.90;68.20;;;;;;5033669;28;20037;-56
2022/03/21 04:15:54;;;;;;;54.22;44.80;;;9.90;68.40;;;;;;5033324;28;20025;-57
2022/03/21 04:18:20;;;;;;;51.80;44.30;;;9.80;69.10;;;;;;5033503;28;20482;-55
2022/03/21 04:20:48;;;;;;;50.90;45.30;;;9.80;68.50;;;;;;5033348;28;20025;-57
2022/03/21 04:23:14;;;;;;;54.88;45.97;;;9.80;68.40;;;;;;5032973;28;20022;-58
2022/03/21 04:25:39;;;;;;;51.08;44.05;;;9.80;68.40;;;;;;5033314;28;20079;-55
2022/03/21 04:28:09;;;;;;;55.67;46.38;;;9.80;68.40;;;;;;5032515;28;20030;-53
2022/03/21 04:30:37;;;;;;;54.17;46.78;;;9.70;68.20;;;;;;5033322;28;20025;-57
2022/03/21 04:33:05;;;;;;;55.88;46.38;;;9.80;68.20;;;;;;5033248;28;20108;-55
2022/03/21 04:35:31;;;;;;;50.75;45.20;;;9.70;68.30;;;;;;5033163;28;20029;-55
2022/03/21 04:37:57;;;;;;;51.92;44.38;;;9.70;68.20;;;;;;5032856;28;20029;-56
2022/03/21 04:40:24;;;;;;;52.60;45.60;;;9.80;68.30;;;;;;5033273;28;20051;-55
2022/03/21 04:42:49;;;;;;;55.90;46.53;;;9.70;68.30;;;;;;5033204;28;20037;-57
2022/03/21 04:45:16;;;;;;;55.45;47.80;;;9.70;68.90;;;;;;5032863;28;20033;-54
2022/03/21 04:47:43;;;;;;;52.60;45.50;;;9.70;68.40;;;;;;5032943;28;20030;-57
2022/03/21 04:50:09;;;;;;;54.17;46.88;;;9.60;68.40;;;;;;5026981;28;20018;-55
2022/03/21 04:52:35;;;;;;;55.70;45.85;;;9.60;68.40;;;;;;5027880;28;20018;-58
2022/03/21 04:55:01;;;;;;;51.67;44.58;;;9.60;68.50;;;;;;5033055;28;20048;-56
2022/03/21 04:57:27;;;;;;;51.42;45.83;;;9.60;68.60;;;;;;5032426;28;20093;-56
2022/03/21 04:59:54;;;;;;;54.53;45.50;;;9.60;68.50;;;;;;5032820;28;20049;-56
2022/03/21 05:02:20;;;;;;;51.92;44.38;;;9.60;68.60;;;;;;5032802;28;20022;-55
2022/03/21 05:04:45;;;;;;;49.17;43.88;;;9.60;68.60;;;;;;5032868;28;20498;-56
2022/03/21 05:07:16;;;;;;;51.95;43.67;;;9.60;68.80;;;;;;5032412;28;20025;-53
2022/03/21 05:09:43;;;;;;;51.35;43.90;;;9.60;69.00;;;;;;5032854;28;20017;-54
2022/03/21 05:12:12;;;;;;;49.05;42.35;;;9.70;69.90;;;;;;5032183;28;20033;-53
2022/03/21 05:14:38;;;;;;;47.80;41.15;;;9.80;68.10;;;;;;5032847;28;20475;-61
2022/03/21 05:17:05;;;;;;;44.55;39.67;;;9.70;67.70;;;;;;5032857;28;20025;-55
2022/03/21 05:19:36;;;;;;;49.83;42.75;;;9.70;67.50;;;;;;5036078;28;20108;-55
2022/03/21 05:22:06;;;;;;;53.00;43.30;;;9.70;67.60;;;;;;5035627;28;20027;-57
2022/03/21 05:35:52;;;;;;;51.13;42.97;;;9.40;68.20;;;;;;5016830;28;20168;-57
2022/03/21 05:35:54;;;;;;;47.53;42.13;;;9.30;68.30;;;;;;5034217;28;20439;-55
2022/03/21 05:38:24;;;;;;;47.40;40.83;;;9.30;68.40;;;;;;5034656;28;20021;-55
2022/03/21 05:40:51;;;;;;;46.60;41.22;;;9.30;68.50;;;;;;5035647;28;20025;-54
2022/03/21 05:43:17;;;;;;;48.70;42.10;;;9.30;68.60;;;;;;5036033;28;20129;-55
2022/03/21 05:45:43;;;;;;;46.55;41.58;;;9.20;68.70;;;;;;5035147;28;20542;-54
2022/03/21 05:50:52;;;;;;;46.22;40.03;;;9.20;68.70;;;;;;5035421;28;20039;-54
2022/03/21 05:53:18;;;;;;;49.95;39.72;;;9.20;68.50;;;;;;5035014;28;20014;-57
2022/03/21 05:55:45;;;;;;;46.47;40.08;;;9.30;68.30;;;;;;5035700;28;20025;-54
2022/03/21 05:58:12;;;;;;;43.97;38.50;;;9.30;68.10;;;;;;5034476;28;20072;-55
2022/03/21 06:00:38;;;;;;;43.90;39.08;;;9.40;68.00;;;;;;5033596;28;20133;-54
2022/03/21 06:03:04;;;;;;;47.83;37.83;;;9.40;68.20;;;;;;5027990;28;20079;-53
2022/03/21 06:05:30;;;;;;;45.55;40.22;;;9.40;68.30;;;;;;5015040;28;20121;-57
2022/03/21 06:07:56;;;;;;;49.88;40.60;;;9.40;68.50;;;;;;5015270;28;20033;-55
2022/03/21 06:10:21;;;;;;;49.63;41.97;;;9.40;68.10;;;;;;5022421;28;20041;-56
2022/03/21 06:12:48;;;;;;;45.33;39.38;;;9.50;67.60;;;;;;5035546;28;20084;-59
2022/03/21 06:15:14;;;;;;;48.42;38.38;;;9.50;67.80;;;;;;5034922;28;20052;-58
2022/03/21 06:17:41;;;;;;;45.30;39.97;;;9.60;67.60;;;;;;5023718;28;20475;-57
2022/03/21 06:20:12;;;;;;;48.97;39.92;;;9.50;67.70;;;;;;5034872;28;20449;-62
2022/03/21 06:22:39;;;;;;;45.92;40.63;;;9.50;69.30;;;;;;5027684;28;21560;-56
2022/03/21 06:25:06;;;;;;;49.67;40.83;;;9.50;69.50;;;;;;5028276;28;20502;-52
2022/03/21 06:27:33;;;;;;;47.05;40.75;;;9.50;70.00;;;;;;5028448;28;20101;-68
2022/03/21 06:29:59;;;;;;;49.33;40.80;;;9.50;70.10;;;;;;5031173;28;20108;-59
2022/03/21 06:32:25;;;;;;;51.97;43.30;;;9.50;69.90;;;;;;5030813;28;20100;-56
2022/03/21 06:34:52;;;;;;;56.28;38.08;;;9.40;69.90;;;;;;5033068;28;20025;-63
2022/03/21 06:37:18;;;;;;;53.83;38.72;;;9.30;70.60;;;;;;5031623;28;20036;-57
2022/03/21 06:39:44;;;;;;;54.72;39.45;;;9.30;70.50;;;;;;5026543;28;20025;-55
2022/03/21 06:42:11;;;;;;;51.92;38.55;;;9.40;70.20;;;;;;5029972;28;20025;-55
2022/03/21 06:44:37;;;;;;;51.15;39.47;;;9.40;70.10;;;;;;5015326;28;20038;-64
2022/03/21 06:47:03;;;;;;;51.70;40.13;;;9.50;69.90;;;;;;5023025;28;20474;-55
2022/03/21 06:49:30;;;;;;;47.80;38.05;;;9.50;70.20;;;;;;5031118;28;20026;-61
2022/03/21 06:52:02;;;;;;;48.33;37.55;;;9.50;70.50;;;;;;5027644;28;20061;-67
2022/03/21 06:54:29;;;;;;;42.50;37.83;;;9.50;70.50;;;;;;5030777;28;20029;-57
2022/03/21 06:56:56;;;;;;;48.85;35.60;;;9.50;70.70;;;;;;5024972;28;20030;-59
2022/03/21 06:59:22;;;;;;;47.75;37.38;;;9.50;71.20;;;;;;5029786;28;20104;-66
2022/03/21 07:01:48;;;;;;;46.45;36.83;;;9.70;70.70;;;;;;5031333;28;20068;-61
2022/03/21 07:04:13;;;;;;;53.38;36.08;;;9.60;70.90;;;;;;5030795;28;20053;-59
2022/03/21 07:06:39;;;;;;;43.22;35.08;;;9.80;70.50;;;;;;5031860;28;20045;-59
2022/03/21 07:09:04;;;;;;;47.42;35.97;;;9.80;70.60;;;;;;5031029;28;20021;-59
2022/03/21 07:11:32;;;;;;;42.42;35.70;;;9.80;70.60;;;;;;5033804;28;20540;-61
2022/03/21 07:13:57;;;;;;;40.53;34.97;;;9.90;70.40;;;;;;5032888;28;20134;-67
2022/03/21 07:16:23;;;;;;;43.17;35.10;;;9.90;70.00;;;;;;5033209;28;20384;-63
2022/03/21 07:18:49;;;;;;;42.70;34.72;;;10.00;69.80;;;;;;5033204;28;20388;-66
2022/03/21 07:21:16;;;;;;;42.00;35.20;;;10.00;70.20;;;;;;5020642;28;20045;-60
2022/03/21 07:23:42;;;;;;;38.97;31.80;;;10.10;70.50;;;;;;5031157;28;20029;-63
2022/03/21 07:26:08;;;;;;;39.22;32.70;;;10.10;70.00;;;;;;5033705;28;20086;-67
2022/03/21 07:28:33;;;;;;;41.08;31.83;;;10.10;69.90;;;;;;5033508;28;20037;-62
2022/03/21 07:30:59;;;;;;;40.05;31.98;;;10.20;70.10;;;;;;5033607;28;20127;-61
2022/03/21 07:33:24;;;;;;;36.38;31.48;;;10.20;70.20;;;;;;5034176;28;20460;-59
2022/03/21 07:35:50;;;;;;;41.88;31.38;;;10.30;70.20;;;;;;5034175;28;20037;-58
2022/03/21 07:38:19;;;;;;;42.13;29.52;;;10.30;70.00;;;;;;5034121;28;20018;-62
2022/03/21 07:40:48;;;;;;;32.55;27.65;;;10.40;69.60;;;;;;5033400;28;20029;-60
2022/03/21 07:43:14;;;;;;;31.85;27.48;;;10.40;69.50;;;;;;5021997;28;20033;-61
2022/03/21 07:48:27;;;;;;;32.20;25.48;;;10.50;69.70;;;;;;5014485;28;20056;-57
2022/03/21 07:50:53;;;;;;;31.48;25.85;;;10.60;69.50;;;;;;5014242;28;20080;-61
2022/03/21 07:53:19;;;;;;;35.55;26.95;;;10.60;69.60;;;;;;5020859;28;20025;-60
2022/03/21 07:55:44;;;;;;;36.42;27.10;;;10.70;69.60;;;;;;5033539;28;20080;-57
2022/03/21 07:58:10;;;;;;;34.05;27.25;;;10.70;69.40;;;;;;5033722;28;20021;-58
2022/03/21 08:00:35;;;;;;;34.25;27.05;;;10.70;69.50;;;;;;5033518;28;20028;-65
2022/03/21 08:03:02;;;;;;;37.75;27.55;;;10.80;69.50;;;;;;5033950;28;20458;-61
2022/03/21 08:05:28;;;;;;;35.50;26.88;;;10.80;69.80;;;;;;5033461;28;20095;-54
2022/03/21 08:07:54;;;;;;;32.65;25.13;;;10.80;69.70;;;;;;5033504;28;20021;-63
2022/03/21 08:10:20;;;;;;;36.35;25.67;;;10.80;70.00;;;;;;5033218;28;20462;-61
2022/03/21 08:12:46;;;;;;;35.63;25.55;;;10.90;70.00;;;;;;5033709;28;20025;-60
2022/03/21 08:15:13;;;;;;;27.52;23.95;;;11.00;70.50;;;;;;5032596;28;20029;-58
2022/03/21 08:17:58;;;;;;;31.08;23.77;;;11.00;70.20;;;;;;5033109;28;20029;-53
2022/03/21 08:20:26;;;;;;;27.38;23.58;;;11.00;69.50;;;;;;5033079;28;20589;-60
2022/03/21 08:22:52;;;;;;;27.33;23.33;;;11.10;70.70;;;;;;5033152;28;20038;-58
2022/03/21 08:25:20;;;;;;;30.05;24.35;;;11.10;69.70;;;;;;5032615;28;20044;-64
2022/03/21 08:27:47;;;;;;;28.90;24.13;;;11.10;69.50;;;;;;5015512;28;20017;-56
2022/03/21 08:30:15;;;;;;;28.60;23.67;;;11.10;69.70;;;;;;5032885;28;20116;-56
2022/03/21 08:32:47;;;;;;;28.88;23.30;;;11.10;69.80;;;;;;5032763;28;20114;-66
2022/03/21 08:35:17;;;;;;;27.58;23.10;;;11.20;70.30;;;;;;5031627;28;20031;-60
2022/03/21 08:37:43;;;;;;;33.92;23.83;;;11.20;70.30;;;;;;5032648;28;20064;-62
2022/03/21 08:40:10;;;;;;;29.73;22.85;;;11.20;70.20;;;;;;5032759;28;20072;-63
2022/03/21 08:42:36;;;;;;;28.23;23.17;;;11.30;70.70;;;;;;5027412;28;20036;-57
2022/03/21 08:45:02;;;;;;;27.27;21.25;;;11.30;70.30;;;;;;5031862;28;20060;-67
2022/03/21 08:47:28;;;;;;;23.85;19.92;;;11.30;70.00;;;;;;5014409;28;20447;-63
2022/03/21 08:49:54;;;;;;;26.92;21.38;;;11.40;70.00;;;;;;5013911;28;20105;-61
2022/03/21 08:52:19;;;;;;;29.85;21.42;;;11.40;70.30;;;;;;5033431;28;20414;-54
2022/03/21 08:54:46;;;;;;;26.60;21.63;;;11.40;70.30;;;;;;5039594;28;20030;-66
2022/03/21 08:57:11;;;;;;;27.10;22.27;;;11.40;70.40;;;;;;5028541;28;20069;-56
2022/03/21 08:59:37;;;;;;;27.05;20.42;;;11.50;70.60;;;;;;5019528;28;20057;-63
2022/03/21 09:02:04;;;;;;;26.13;22.60;;;11.50;70.50;;;;;;5001854;28;20436;-66
2022/03/21 09:04:30;;;;;;;29.48;23.35;;;11.50;71.00;;;;;;5019679;28;20034;-63
2022/03/21 09:06:55;;;;;;;28.73;21.20;;;11.50;71.10;;;;;;5029445;28;20034;-64
2022/03/21 09:09:21;;;;;;;27.90;23.05;;;11.60;71.30;;;;;;5039201;28;20029;-59
2022/03/21 09:11:47;;;;;;;26.75;22.02;;;11.60;71.20;;;;;;5039297;28;20084;-56
2022/03/21 09:14:15;;;;;;;24.58;21.13;;;11.60;71.30;;;;;;5038880;28;20017;-56
2022/03/21 09:16:42;;;;;;;30.80;21.75;;;11.60;71.30;;;;;;5039132;28;20136;-67
2022/03/21 09:19:08;;;;;;;24.70;20.70;;;11.70;71.40;;;;;;5039299;28;20025;-62
2022/03/21 09:21:35;;;;;;;28.13;21.25;;;11.70;71.20;;;;;;5039291;28;20025;-67
2022/03/21 09:24:01;;;;;;;24.05;19.20;;;11.70;71.20;;;;;;5039443;28;20030;-60
2022/03/21 09:26:27;;;;;;;23.75;19.17;;;11.80;71.30;;;;;;5036737;28;20084;-57
2022/03/21 09:28:59;;;;;;;25.08;21.33;;;11.80;71.40;;;;;;5038684;28;20371;-57
2022/03/21 09:31:26;;;;;;;25.88;20.63;;;11.80;71.30;;;;;;5039122;28;20033;-52
2022/03/21 09:33:52;;;;;;;25.92;20.88;;;11.80;71.50;;;;;;5038547;28;20410;-56
2022/03/21 09:36:17;;;;;;;22.15;18.92;;;11.90;71.50;;;;;;5038762;28;20018;-62
2022/03/21 09:38:43;;;;;;;19.98;16.67;;;11.90;71.50;;;;;;5038461;28;20486;-56
2022/03/21 09:41:12;;;;;;;26.90;19.08;;;11.90;70.90;;;;;;5021396;28;20422;-60
2022/03/21 09:43:39;;;;;;;27.33;20.33;;;12.00;71.30;;;;;;5021410;28;20402;-59
2022/03/21 09:46:07;;;;;;;28.23;18.83;;;12.00;71.50;;;;;;5019289;28;20117;-59
2022/03/21 09:48:34;;;;;;;21.52;16.58;;;12.00;71.60;;;;;;5019089;28;20045;-68
2022/03/21 09:51:03;;;;;;;22.83;18.05;;;12.00;71.30;;;;;;5019207;28;20429;-60
2022/03/21 09:53:29;;;;;;;26.50;19.50;;;12.10;71.50;;;;;;5019442;28;20040;-60
2022/03/21 09:55:57;;;;;;;24.70;19.00;;;12.00;71.80;;;;;;5030944;28;20477;-60
2022/03/21 09:58:23;;;;;;;26.67;19.75;;;12.10;72.00;;;;;;5036121;28;20098;-61
2022/03/21 10:00:49;;;;;;;23.85;20.60;;;12.10;71.80;;;;;;5038785;28;20537;-58
2022/03/21 10:03:16;;;;;;;25.05;18.30;;;12.10;71.90;;;;;;5021026;28;20156;-59
2022/03/21 10:05:46;;;;;;;25.33;19.27;;;12.20;71.70;;;;;;5036024;28;20171;-55
2022/03/21 10:08:23;;;;;;;25.83;19.42;;;12.20;71.80;;;;;;5035725;28;20529;-58
2022/03/21 10:11:03;;;;;;;23.77;18.65;;;12.20;71.60;;;;;;5035204;28;20032;-57
2022/03/21 10:13:31;;;;;;;25.83;18.67;;;12.20;71.30;;;;;;5035291;28;20030;-55
2022/03/21 10:16:12;;;;;;;23.33;15.63;;;12.20;71.60;;;;;;5035089;28;20069;-58
2022/03/21 10:18:57;;;;;;;24.00;16.95;;;12.30;71.70;;;;;;5030120;28;20039;-60
2022/03/21 10:21:25;;;;;;;21.92;16.88;;;12.30;71.80;;;;;;5033884;28;20079;-57
2022/03/21 10:24:02;;;;;;;22.48;17.88;;;12.30;71.80;;;;;;5034975;28;20033;-60
2022/03/21 10:26:29;;;;;;;22.42;14.75;;;12.30;71.90;;;;;;5022947;28;20503;-61
2022/03/21 10:28:58;;;;;;;23.70;17.58;;;12.40;71.90;;;;;;5002111;28;20490;-60
2022/03/21 10:31:41;;;;;;;24.38;17.50;;;12.40;72.20;;;;;;5030091;28;20021;-62
2022/03/21 10:34:12;;;;;;;23.88;18.85;;;12.40;71.90;;;;;;5009244;28;20030;-57
2022/03/21 10:37:16;;;;;;;23.98;17.05;;;12.50;72.50;;;;;;5031827;28;20110;-55
2022/03/21 10:39:50;;;;;;;23.20;18.30;;;12.50;71.80;;;;;;4954081;28;20083;-53
2022/03/21 10:42:16;;;;;;;25.80;18.70;;;12.40;72.60;;;;;;4950610;29;20020;-57
2022/03/21 10:44:54;;;;;;;24.15;17.80;;;12.50;72.90;;;;;;4995987;28;20119;-55
2022/03/21 10:47:19;;;;;;;21.42;17.75;;;12.60;72.90;;;;;;5032714;28;20022;-58
2022/03/21 10:49:45;;;;;;;22.35;17.67;;;12.60;73.20;;;;;;5012750;28;20030;-59
2022/03/21 10:52:19;;;;;;;21.85;16.75;;;12.60;73.20;;;;;;5032765;28;20026;-63
2022/03/21 10:54:49;;;;;;;17.10;14.23;;;12.70;73.30;;;;;;5021907;28;20034;-67
2022/03/21 10:57:34;;;;;;;21.40;17.20;;;12.70;73.60;;;;;;5014386;28;20097;-60
2022/03/21 11:00:20;;;;;;;16.65;12.82;;;12.70;73.30;;;;;;5015932;28;20037;-67
2022/03/21 11:02:48;;;;;;;20.55;15.27;;;12.70;73.40;;;;;;5028595;28;20066;-61
2022/03/21 11:05:15;;;;;;;17.15;12.20;;;12.80;74.40;;;;;;5027341;28;20042;-57
2022/03/21 11:07:41;;;;;;;14.68;9.05;;;12.80;74.30;;;;;;5034827;28;20025;-59
2022/03/21 11:10:07;;;;;;;16.30;10.63;;;12.80;74.60;;;;;;5034449;28;20022;-64
2022/03/21 11:12:34;;;;;;;13.23;9.60;;;12.90;74.70;;;;;;5028239;28;20072;-54
2022/03/21 11:15:04;;;;;;;17.73;15.25;;;13.00;74.70;;;;;;5014670;28;20156;-59
2022/03/21 11:17:32;;;;;;;24.95;19.40;;;13.00;75.30;;;;;;5014551;28;20033;-58
2022/03/21 11:19:59;;;;;;;24.23;18.30;;;13.00;74.80;;;;;;5014237;28;20022;-64
2022/03/21 11:22:25;;;;;;;18.75;14.23;;;13.10;75.00;;;;;;5014731;28;20026;-61
2022/03/21 11:24:51;;;;;;;21.13;15.23;;;13.10;75.20;;;;;;5021214;28;20594;-58
2022/03/21 11:27:47;;;;;;;25.75;18.65;;;13.30;70.90;;;;;;5002843;28;20049;-61
2022/03/21 11:30:40;;;;;;;15.30;10.90;;;13.50;68.00;;;;;;5014395;28;20518;-66
2022/03/21 11:33:35;;;;;;;21.63;17.52;;;13.70;72.40;;;;;;5004706;28;20025;-66
2022/03/21 11:36:08;;;;;;;14.80;9.68;;;14.00;70.80;;;;;;5016365;28;20041;-59
2022/03/21 11:38:41;;;;;;;16.92;10.07;;;14.00;70.80;;;;;;5032466;28;20053;-59
2022/03/21 11:41:21;;;;;;;21.92;15.50;;;14.10;71.20;;;;;;5024870;28;20348;-66
2022/03/21 11:44:06;;;;;;;20.65;18.25;;;14.30;71.10;;;;;;5026166;28;20029;-60
2022/03/21 11:46:37;;;;;;;14.50;9.50;;;14.40;70.60;;;;;;5019561;28;20423;-62
2022/03/21 11:49:05;;;;;;;14.95;8.82;;;14.40;71.80;;;;;;5019513;28;20017;-64
2022/03/21 11:51:40;;;;;;;19.45;11.10;;;14.40;72.10;;;;;;5016623;28;20079;-66
2022/03/21 11:54:30;;;;;;;19.73;13.45;;;14.50;73.20;;;;;;5022743;28;20415;-66
2022/03/21 11:57:00;;;;;;;17.25;14.07;;;14.60;73.20;;;;;;5019832;28;20026;-64
2022/03/21 11:59:31;;;;;;;20.23;15.20;;;14.70;72.10;;;;;;5024922;28;20010;-63
2022/03/21 12:01:57;;;;;;;22.50;18.40;;;14.70;71.70;;;;;;5026147;28;20033;-65
2022/03/21 12:04:28;;;;;;;16.27;12.98;;;14.80;71.50;;;;;;5029033;28;20092;-66
2022/03/21 12:07:20;;;;;;;31.15;16.05;;;14.80;72.10;;;;;;5026012;28;20471;-66
2022/03/21 12:09:48;;;;;;;19.23;12.70;;;15.00;74.20;;;;;;5031750;28;20526;-67
2022/03/21 12:12:14;;;;;;;20.10;13.98;;;14.90;73.70;;;;;;5032472;28;20045;-67
2022/03/21 12:14:44;;;;;;;18.63;13.90;;;15.00;73.80;;;;;;5031672;28;20040;-67
2022/03/21 12:17:13;;;;;;;20.27;11.93;;;15.00;74.20;;;;;;5032404;28;20366;-67
2022/03/21 12:19:51;;;;;;;19.20;11.20;;;15.00;74.20;;;;;;5032140;28;20025;-65
2022/03/21 12:22:29;;;;;;;19.00;14.65;;;15.10;73.80;;;;;;5031257;28;20037;-67
2022/03/21 12:25:00;;;;;;;14.52;9.15;;;15.10;73.70;;;;;;5012822;28;20045;-57
2022/03/21 12:27:55;;;;;;;13.20;8.75;;;15.10;74.10;;;;;;5029768;28;20483;-56
2022/03/21 12:30:20;;;;;;;14.95;8.10;;;15.20;74.00;;;;;;5026814;28;20033;-62
2022/03/21 12:32:51;;;;;;;16.55;8.48;;;15.20;74.30;;;;;;5030860;28;20099;-57
2022/03/21 12:35:31;;;;;;;18.27;14.60;;;15.30;74.20;;;;;;5031046;28;20083;-61
2022/03/21 12:38:17;;;;;;;11.05;8.02;;;15.40;73.60;;;;;;5030898;28;20055;-60
2022/03/21 12:40:58;;;;;;;11.20;8.38;;;15.40;74.10;;;;;;5027212;28;20471;-64
2022/03/21 12:43:27;;;;;;;14.27;7.72;;;15.40;74.10;;;;;;5025688;28;20091;-66
2022/03/21 12:45:58;;;;;;;12.88;7.90;;;15.40;74.40;;;;;;5027724;28;20037;-65
2022/03/21 12:48:29;;;;;;;20.90;15.17;;;15.40;74.70;;;;;;5022161;28;20026;-67
2022/03/21 12:50:54;;;;;;;14.90;12.57;;;15.40;74.20;;;;;;5031300;28;20370;-66
2022/03/21 12:53:21;;;;;;;11.77;7.63;;;15.40;74.70;;;;;;5031061;28;20419;-66
2022/03/21 12:55:59;;;;;;;10.73;7.80;;;15.50;75.40;;;;;;5022286;28;20037;-66